sensor_id;sensor_type;location;lat;lon;timestamp;temperature;humidity
61386;DHT22;47256;18.904;-99.054;2022-10-16T00:01:42;28.30;85.70
61386;DHT22;47256;18.904;-99.054;2022-10-16T00:04:09;28.20;86.20
61386;DHT22;47256;18.904;-99.054;2022-10-16T00:06:38;28.20;87.10
61386;DHT22;47256;18.904;-99.054;2022-10-16T00:09:05;28.20;87.90
61386;DHT22;47256;18.904;-99.054;2022-10-16T00:11:35;28.10;87.60
61386;DHT22;47256;18.904;-99.054;2022-10-16T00:14:10;28.10;86.40
61386;DHT22;47256;18.904;-99.054;2022-10-16T00:16:38;28.00;87.30
61386;DHT22;47256;18.904;-99.054;2022-10-16T00:19:06;28.00;87.20
61386;DHT22;47256;18.904;-99.054;2022-10-16T00:21:35;28.00;87.70
61386;DHT22;47256;18.904;-99.054;2022-10-16T00:24:06;28.00;88.00
61386;DHT22;47256;18.904;-99.054;2022-10-16T00:26:37;28.00;89.50
61386;DHT22;47256;18.904;-99.054;2022-10-16T00:29:05;28.00;89.60
61386;DHT22;47256;18.904;-99.054;2022-10-16T00:31:33;28.00;89.80
61386;DHT22;47256;18.904;-99.054;2022-10-16T00:34:00;28.00;90.00
61386;DHT22;47256;18.904;-99.054;2022-10-16T00:36:28;27.90;90.20
61386;DHT22;47256;18.904;-99.054;2022-10-16T00:38:56;27.90;90.70
61386;DHT22;47256;18.904;-99.054;2022-10-16T00:41:26;27.90;91.10
61386;DHT22;47256;18.904;-99.054;2022-10-16T00:44:02;27.80;91.50
61386;DHT22;47256;18.904;-99.054;2022-10-16T00:46:38;27.70;92.20
61386;DHT22;47256;18.904;-99.054;2022-10-16T00:49:13;27.60;92.30
61386;DHT22;47256;18.904;-99.054;2022-10-16T00:51:46;27.50;92.60
61386;DHT22;47256;18.904;-99.054;2022-10-16T00:54:27;27.50;92.90
61386;DHT22;47256;18.904;-99.054;2022-10-16T00:57:01;27.40;93.50
61386;DHT22;47256;18.904;-99.054;2022-10-16T00:59:38;27.40;93.20
61386;DHT22;47256;18.904;-99.054;2022-10-16T01:02:11;27.40;93.50
61386;DHT22;47256;18.904;-99.054;2022-10-16T01:04:45;27.40;93.50
61386;DHT22;47256;18.904;-99.054;2022-10-16T01:10:39;27.20;94.00
61386;DHT22;47256;18.904;-99.054;2022-10-16T01:16:13;27.10;93.90
61386;DHT22;47256;18.904;-99.054;2022-10-16T01:18:54;27.00;94.50
61386;DHT22;47256;18.904;-99.054;2022-10-16T01:21:33;26.90;94.40
61386;DHT22;47256;18.904;-99.054;2022-10-16T01:24:17;26.80;94.70
61386;DHT22;47256;18.904;-99.054;2022-10-16T01:29:41;26.60;94.40
61386;DHT22;47256;18.904;-99.054;2022-10-16T01:34:59;26.70;94.30
61386;DHT22;47256;18.904;-99.054;2022-10-16T01:37:38;26.60;93.90
61386;DHT22;47256;18.904;-99.054;2022-10-16T01:40:11;26.60;94.00
61386;DHT22;47256;18.904;-99.054;2022-10-16T01:42:45;26.60;94.00
61386;DHT22;47256;18.904;-99.054;2022-10-16T01:45:15;26.60;94.00
61386;DHT22;47256;18.904;-99.054;2022-10-16T01:47:47;26.50;93.80
61386;DHT22;47256;18.904;-99.054;2022-10-16T01:50:18;26.40;93.90
61386;DHT22;47256;18.904;-99.054;2022-10-16T01:52:49;26.40;94.20
61386;DHT22;47256;18.904;-99.054;2022-10-16T01:55:31;26.30;94.00
61386;DHT22;47256;18.904;-99.054;2022-10-16T01:58:02;26.20;94.30
61386;DHT22;47256;18.904;-99.054;2022-10-16T02:00:37;26.30;94.70
61386;DHT22;47256;18.904;-99.054;2022-10-16T02:03:05;26.10;94.70
61386;DHT22;47256;18.904;-99.054;2022-10-16T02:05:42;26.10;94.60
61386;DHT22;47256;18.904;-99.054;2022-10-16T02:08:12;26.10;94.60
61386;DHT22;47256;18.904;-99.054;2022-10-16T02:10:41;26.10;94.70
61386;DHT22;47256;18.904;-99.054;2022-10-16T02:13:48;26.00;94.70
61386;DHT22;47256;18.904;-99.054;2022-10-16T02:16:19;26.00;94.90
61386;DHT22;47256;18.904;-99.054;2022-10-16T02:18:46;26.10;94.80
61386;DHT22;47256;18.904;-99.054;2022-10-16T02:21:41;26.10;94.90
61386;DHT22;47256;18.904;-99.054;2022-10-16T02:27:18;26.00;95.00
61386;DHT22;47256;18.904;-99.054;2022-10-16T02:29:49;26.00;94.90
61386;DHT22;47256;18.904;-99.054;2022-10-16T02:32:23;26.00;94.60
61386;DHT22;47256;18.904;-99.054;2022-10-16T02:34:52;26.00;94.40
61386;DHT22;47256;18.904;-99.054;2022-10-16T02:37:21;26.10;94.40
61386;DHT22;47256;18.904;-99.054;2022-10-16T02:39:51;26.10;94.20
61386;DHT22;47256;18.904;-99.054;2022-10-16T02:42:18;26.10;94.10
61386;DHT22;47256;18.904;-99.054;2022-10-16T02:44:47;26.00;94.20
61386;DHT22;47256;18.904;-99.054;2022-10-16T02:47:16;26.00;94.30
61386;DHT22;47256;18.904;-99.054;2022-10-16T02:49:46;25.90;94.40
61386;DHT22;47256;18.904;-99.054;2022-10-16T02:52:13;25.90;94.50
61386;DHT22;47256;18.904;-99.054;2022-10-16T02:54:41;25.80;94.60
61386;DHT22;47256;18.904;-99.054;2022-10-16T02:57:10;25.70;94.70
61386;DHT22;47256;18.904;-99.054;2022-10-16T02:59:39;25.60;94.60
61386;DHT22;47256;18.904;-99.054;2022-10-16T03:02:08;25.60;94.50
61386;DHT22;47256;18.904;-99.054;2022-10-16T03:04:36;25.60;94.80
61386;DHT22;47256;18.904;-99.054;2022-10-16T03:07:03;25.60;94.90
61386;DHT22;47256;18.904;-99.054;2022-10-16T03:09:31;25.50;94.90
61386;DHT22;47256;18.904;-99.054;2022-10-16T03:11:59;25.60;94.60
61386;DHT22;47256;18.904;-99.054;2022-10-16T03:14:27;25.60;94.20
61386;DHT22;47256;18.904;-99.054;2022-10-16T03:16:54;25.60;94.90
61386;DHT22;47256;18.904;-99.054;2022-10-16T03:19:22;25.50;94.80
61386;DHT22;47256;18.904;-99.054;2022-10-16T03:21:50;25.50;94.60
61386;DHT22;47256;18.904;-99.054;2022-10-16T03:24:18;25.40;94.70
61386;DHT22;47256;18.904;-99.054;2022-10-16T03:26:46;25.40;94.60
61386;DHT22;47256;18.904;-99.054;2022-10-16T03:29:13;25.40;94.60
61386;DHT22;47256;18.904;-99.054;2022-10-16T03:31:42;25.40;94.50
61386;DHT22;47256;18.904;-99.054;2022-10-16T03:34:10;25.40;94.60
61386;DHT22;47256;18.904;-99.054;2022-10-16T03:36:39;25.50;94.60
61386;DHT22;47256;18.904;-99.054;2022-10-16T03:39:06;25.50;94.70
61386;DHT22;47256;18.904;-99.054;2022-10-16T03:41:36;25.40;94.60
61386;DHT22;47256;18.904;-99.054;2022-10-16T03:44:04;25.40;94.90
61386;DHT22;47256;18.904;-99.054;2022-10-16T03:46:32;25.40;94.80
61386;DHT22;47256;18.904;-99.054;2022-10-16T03:49:01;25.40;94.90
61386;DHT22;47256;18.904;-99.054;2022-10-16T03:51:29;25.30;94.70
61386;DHT22;47256;18.904;-99.054;2022-10-16T03:53:57;25.30;94.90
61386;DHT22;47256;18.904;-99.054;2022-10-16T03:56:26;25.20;94.70
61386;DHT22;47256;18.904;-99.054;2022-10-16T03:58:54;25.20;94.80
61386;DHT22;47256;18.904;-99.054;2022-10-16T04:01:23;25.20;95.00
61386;DHT22;47256;18.904;-99.054;2022-10-16T04:03:50;25.20;94.90
61386;DHT22;47256;18.904;-99.054;2022-10-16T04:06:18;25.20;95.00
61386;DHT22;47256;18.904;-99.054;2022-10-16T04:08:45;25.20;95.20
61386;DHT22;47256;18.904;-99.054;2022-10-16T04:11:12;25.20;95.50
61386;DHT22;47256;18.904;-99.054;2022-10-16T04:13:40;25.20;95.60
61386;DHT22;47256;18.904;-99.054;2022-10-16T04:16:08;25.10;95.90
61386;DHT22;47256;18.904;-99.054;2022-10-16T04:18:36;25.10;96.10
61386;DHT22;47256;18.904;-99.054;2022-10-16T04:21:05;25.10;96.10
61386;DHT22;47256;18.904;-99.054;2022-10-16T04:23:33;25.10;96.00
61386;DHT22;47256;18.904;-99.054;2022-10-16T04:26:01;25.00;96.20
61386;DHT22;47256;18.904;-99.054;2022-10-16T04:28:28;25.00;96.20
61386;DHT22;47256;18.904;-99.054;2022-10-16T04:30:56;25.00;96.40
61386;DHT22;47256;18.904;-99.054;2022-10-16T04:33:23;25.00;96.70
61386;DHT22;47256;18.904;-99.054;2022-10-16T04:35:57;24.90;96.60
61386;DHT22;47256;18.904;-99.054;2022-10-16T04:38:26;24.90;96.70
61386;DHT22;47256;18.904;-99.054;2022-10-16T04:40:53;24.80;96.60
61386;DHT22;47256;18.904;-99.054;2022-10-16T04:43:23;24.80;96.90
61386;DHT22;47256;18.904;-99.054;2022-10-16T04:45:51;24.80;96.70
61386;DHT22;47256;18.904;-99.054;2022-10-16T04:48:19;24.80;96.60
61386;DHT22;47256;18.904;-99.054;2022-10-16T04:50:46;24.80;96.90
61386;DHT22;47256;18.904;-99.054;2022-10-16T04:53:13;24.80;96.50
61386;DHT22;47256;18.904;-99.054;2022-10-16T04:55:42;24.80;96.40
61386;DHT22;47256;18.904;-99.054;2022-10-16T04:58:10;24.80;96.40
61386;DHT22;47256;18.904;-99.054;2022-10-16T05:00:40;24.70;96.20
61386;DHT22;47256;18.904;-99.054;2022-10-16T05:03:08;24.70;96.10
61386;DHT22;47256;18.904;-99.054;2022-10-16T05:05:43;24.70;96.40
61386;DHT22;47256;18.904;-99.054;2022-10-16T05:08:14;24.80;96.20
61386;DHT22;47256;18.904;-99.054;2022-10-16T05:10:42;24.70;96.30
61386;DHT22;47256;18.904;-99.054;2022-10-16T05:13:11;24.70;96.30
61386;DHT22;47256;18.904;-99.054;2022-10-16T05:15:40;24.60;96.10
61386;DHT22;47256;18.904;-99.054;2022-10-16T05:18:08;24.60;96.10
61386;DHT22;47256;18.904;-99.054;2022-10-16T05:20:35;24.50;96.30
61386;DHT22;47256;18.904;-99.054;2022-10-16T05:23:03;24.60;96.30
61386;DHT22;47256;18.904;-99.054;2022-10-16T05:25:30;24.60;96.30
61386;DHT22;47256;18.904;-99.054;2022-10-16T05:27:59;24.60;96.20
61386;DHT22;47256;18.904;-99.054;2022-10-16T05:30:26;24.50;96.20
61386;DHT22;47256;18.904;-99.054;2022-10-16T05:32:54;24.50;96.50
61386;DHT22;47256;18.904;-99.054;2022-10-16T05:35:22;24.40;96.60
61386;DHT22;47256;18.904;-99.054;2022-10-16T05:37:49;24.50;96.40
61386;DHT22;47256;18.904;-99.054;2022-10-16T05:40:18;24.50;96.40
61386;DHT22;47256;18.904;-99.054;2022-10-16T05:42:45;24.50;96.30
61386;DHT22;47256;18.904;-99.054;2022-10-16T05:45:12;24.50;96.20
61386;DHT22;47256;18.904;-99.054;2022-10-16T05:47:41;24.50;95.80
61386;DHT22;47256;18.904;-99.054;2022-10-16T05:50:08;24.60;96.00
61386;DHT22;47256;18.904;-99.054;2022-10-16T05:52:37;24.60;95.90
61386;DHT22;47256;18.904;-99.054;2022-10-16T05:55:04;24.60;96.00
61386;DHT22;47256;18.904;-99.054;2022-10-16T05:57:35;24.40;96.20
61386;DHT22;47256;18.904;-99.054;2022-10-16T06:00:02;24.40;96.40
61386;DHT22;47256;18.904;-99.054;2022-10-16T06:02:39;24.50;96.10
61386;DHT22;47256;18.904;-99.054;2022-10-16T06:05:08;24.50;96.10
61386;DHT22;47256;18.904;-99.054;2022-10-16T06:07:36;24.60;96.10
61386;DHT22;47256;18.904;-99.054;2022-10-16T06:10:05;24.50;96.10
61386;DHT22;47256;18.904;-99.054;2022-10-16T06:12:33;24.50;96.20
61386;DHT22;47256;18.904;-99.054;2022-10-16T06:15:01;24.50;96.60
61386;DHT22;47256;18.904;-99.054;2022-10-16T06:17:28;24.50;96.60
61386;DHT22;47256;18.904;-99.054;2022-10-16T06:19:55;24.50;96.60
61386;DHT22;47256;18.904;-99.054;2022-10-16T06:22:23;24.40;96.40
61386;DHT22;47256;18.904;-99.054;2022-10-16T06:24:50;24.40;96.60
61386;DHT22;47256;18.904;-99.054;2022-10-16T06:27:17;24.40;96.60
61386;DHT22;47256;18.904;-99.054;2022-10-16T06:29:45;24.30;96.70
61386;DHT22;47256;18.904;-99.054;2022-10-16T06:32:12;24.40;96.80
61386;DHT22;47256;18.904;-99.054;2022-10-16T06:34:41;24.30;96.80
61386;DHT22;47256;18.904;-99.054;2022-10-16T06:37:08;24.40;96.80
61386;DHT22;47256;18.904;-99.054;2022-10-16T06:39:35;24.40;96.70
61386;DHT22;47256;18.904;-99.054;2022-10-16T06:42:02;24.40;96.60
61386;DHT22;47256;18.904;-99.054;2022-10-16T06:44:37;24.40;96.70
61386;DHT22;47256;18.904;-99.054;2022-10-16T06:47:04;24.30;96.90
61386;DHT22;47256;18.904;-99.054;2022-10-16T06:49:31;24.20;97.00
61386;DHT22;47256;18.904;-99.054;2022-10-16T06:51:58;24.20;97.20
61386;DHT22;47256;18.904;-99.054;2022-10-16T06:54:26;24.20;97.10
61386;DHT22;47256;18.904;-99.054;2022-10-16T06:56:54;24.20;97.10
61386;DHT22;47256;18.904;-99.054;2022-10-16T06:59:22;24.20;97.10
61386;DHT22;47256;18.904;-99.054;2022-10-16T07:01:49;24.20;97.30
61386;DHT22;47256;18.904;-99.054;2022-10-16T07:04:17;24.20;97.30
61386;DHT22;47256;18.904;-99.054;2022-10-16T07:06:44;24.20;97.30
61386;DHT22;47256;18.904;-99.054;2022-10-16T07:09:11;24.10;97.40
61386;DHT22;47256;18.904;-99.054;2022-10-16T07:11:40;24.10;97.40
61386;DHT22;47256;18.904;-99.054;2022-10-16T07:14:18;24.00;97.60
61386;DHT22;47256;18.904;-99.054;2022-10-16T07:16:47;24.00;97.70
61386;DHT22;47256;18.904;-99.054;2022-10-16T07:19:15;24.00;97.60
61386;DHT22;47256;18.904;-99.054;2022-10-16T07:21:44;24.00;97.70
61386;DHT22;47256;18.904;-99.054;2022-10-16T07:24:16;24.00;97.70
61386;DHT22;47256;18.904;-99.054;2022-10-16T07:26:45;24.00;97.80
61386;DHT22;47256;18.904;-99.054;2022-10-16T07:29:15;23.80;98.00
61386;DHT22;47256;18.904;-99.054;2022-10-16T07:31:44;23.80;98.40
61386;DHT22;47256;18.904;-99.054;2022-10-16T07:34:13;23.80;98.10
61386;DHT22;47256;18.904;-99.054;2022-10-16T07:36:41;23.70;98.30
61386;DHT22;47256;18.904;-99.054;2022-10-16T07:39:08;23.70;98.30
61386;DHT22;47256;18.904;-99.054;2022-10-16T07:41:36;23.70;98.40
61386;DHT22;47256;18.904;-99.054;2022-10-16T07:44:03;23.70;98.30
61386;DHT22;47256;18.904;-99.054;2022-10-16T07:46:32;23.60;98.40
61386;DHT22;47256;18.904;-99.054;2022-10-16T07:49:00;23.70;98.40
61386;DHT22;47256;18.904;-99.054;2022-10-16T07:51:28;23.70;98.40
61386;DHT22;47256;18.904;-99.054;2022-10-16T07:53:56;23.70;98.30
61386;DHT22;47256;18.904;-99.054;2022-10-16T07:56:25;23.70;98.40
61386;DHT22;47256;18.904;-99.054;2022-10-16T07:58:52;23.60;98.50
61386;DHT22;47256;18.904;-99.054;2022-10-16T08:01:22;23.70;98.90
61386;DHT22;47256;18.904;-99.054;2022-10-16T08:03:50;23.70;98.90
61386;DHT22;47256;18.904;-99.054;2022-10-16T08:06:21;23.70;98.70
61386;DHT22;47256;18.904;-99.054;2022-10-16T08:08:48;23.70;98.70
61386;DHT22;47256;18.904;-99.054;2022-10-16T08:11:16;23.80;98.30
61386;DHT22;47256;18.904;-99.054;2022-10-16T08:13:44;23.80;98.10
61386;DHT22;47256;18.904;-99.054;2022-10-16T08:16:13;23.90;98.30
61386;DHT22;47256;18.904;-99.054;2022-10-16T08:18:41;23.90;98.20
61386;DHT22;47256;18.904;-99.054;2022-10-16T08:21:13;23.80;98.00
61386;DHT22;47256;18.904;-99.054;2022-10-16T08:23:43;23.80;98.00
61386;DHT22;47256;18.904;-99.054;2022-10-16T08:26:11;23.90;98.00
61386;DHT22;47256;18.904;-99.054;2022-10-16T08:28:41;23.80;98.00
61386;DHT22;47256;18.904;-99.054;2022-10-16T08:33:38;23.60;98.30
61386;DHT22;47256;18.904;-99.054;2022-10-16T08:36:06;23.60;98.50
61386;DHT22;47256;18.904;-99.054;2022-10-16T08:38:34;23.60;98.60
61386;DHT22;47256;18.904;-99.054;2022-10-16T08:44:06;23.40;98.80
61386;DHT22;47256;18.904;-99.054;2022-10-16T08:46:45;23.40;98.80
61386;DHT22;47256;18.904;-99.054;2022-10-16T08:49:18;23.50;98.80
61386;DHT22;47256;18.904;-99.054;2022-10-16T08:51:47;23.40;98.70
61386;DHT22;47256;18.904;-99.054;2022-10-16T08:57:00;23.40;98.80
61386;DHT22;47256;18.904;-99.054;2022-10-16T08:59:33;23.40;98.80
61386;DHT22;47256;18.904;-99.054;2022-10-16T09:02:01;23.40;98.70
61386;DHT22;47256;18.904;-99.054;2022-10-16T09:05:17;23.40;98.60
61386;DHT22;47256;18.904;-99.054;2022-10-16T09:07:50;23.20;98.90
61386;DHT22;47256;18.904;-99.054;2022-10-16T09:16:30;23.20;98.90
61386;DHT22;47256;18.904;-99.054;2022-10-16T09:21:46;23.20;98.70
61386;DHT22;47256;18.904;-99.054;2022-10-16T09:24:17;23.20;98.60
61386;DHT22;47256;18.904;-99.054;2022-10-16T09:26:46;23.30;98.60
61386;DHT22;47256;18.904;-99.054;2022-10-16T09:29:19;23.20;98.50
61386;DHT22;47256;18.904;-99.054;2022-10-16T09:31:48;23.20;98.60
61386;DHT22;47256;18.904;-99.054;2022-10-16T09:34:48;23.10;98.50
61386;DHT22;47256;18.904;-99.054;2022-10-16T09:37:20;23.10;99.10
61386;DHT22;47256;18.904;-99.054;2022-10-16T09:39:53;23.00;98.80
61386;DHT22;47256;18.904;-99.054;2022-10-16T09:42:47;23.00;98.60
61386;DHT22;47256;18.904;-99.054;2022-10-16T09:45:22;22.80;98.90
61386;DHT22;47256;18.904;-99.054;2022-10-16T09:47:53;22.80;99.10
61386;DHT22;47256;18.904;-99.054;2022-10-16T09:50:28;22.80;99.20
61386;DHT22;47256;18.904;-99.054;2022-10-16T09:53:12;22.80;99.30
61386;DHT22;47256;18.904;-99.054;2022-10-16T09:55:53;22.80;99.10
61386;DHT22;47256;18.904;-99.054;2022-10-16T09:58:24;22.70;99.00
61386;DHT22;47256;18.904;-99.054;2022-10-16T10:00:53;22.70;99.20
61386;DHT22;47256;18.904;-99.054;2022-10-16T10:03:42;22.80;99.20
61386;DHT22;47256;18.904;-99.054;2022-10-16T10:06:33;22.80;99.20
61386;DHT22;47256;18.904;-99.054;2022-10-16T10:09:19;22.80;99.20
61386;DHT22;47256;18.904;-99.054;2022-10-16T10:11:57;22.70;99.30
61386;DHT22;47256;18.904;-99.054;2022-10-16T10:14:35;22.70;99.20
61386;DHT22;47256;18.904;-99.054;2022-10-16T10:19:47;22.50;99.20
61386;DHT22;47256;18.904;-99.054;2022-10-16T10:22:26;22.50;99.20
61386;DHT22;47256;18.904;-99.054;2022-10-16T10:24:56;22.60;99.10
61386;DHT22;47256;18.904;-99.054;2022-10-16T10:27:43;22.60;99.00
61386;DHT22;47256;18.904;-99.054;2022-10-16T10:33:09;22.50;99.10
61386;DHT22;47256;18.904;-99.054;2022-10-16T10:35:56;22.60;99.00
61386;DHT22;47256;18.904;-99.054;2022-10-16T10:38:53;22.60;98.90
61386;DHT22;47256;18.904;-99.054;2022-10-16T10:50:14;22.60;98.90
61386;DHT22;47256;18.904;-99.054;2022-10-16T10:53:00;22.50;98.70
61386;DHT22;47256;18.904;-99.054;2022-10-16T10:55:39;22.30;98.70
61386;DHT22;47256;18.904;-99.054;2022-10-16T11:01:08;22.30;99.30
61386;DHT22;47256;18.904;-99.054;2022-10-16T11:04:12;22.30;99.30
61386;DHT22;47256;18.904;-99.054;2022-10-16T11:09:40;22.30;99.20
61386;DHT22;47256;18.904;-99.054;2022-10-16T11:17:35;22.30;99.10
61386;DHT22;47256;18.904;-99.054;2022-10-16T11:20:54;22.30;99.20
61386;DHT22;47256;18.904;-99.054;2022-10-16T11:23:47;22.30;99.10
61386;DHT22;47256;18.904;-99.054;2022-10-16T11:26:29;22.10;99.20
61386;DHT22;47256;18.904;-99.054;2022-10-16T11:28:57;22.10;99.20
61386;DHT22;47256;18.904;-99.054;2022-10-16T11:31:32;22.10;99.00
61386;DHT22;47256;18.904;-99.054;2022-10-16T11:39:30;22.20;99.10
61386;DHT22;47256;18.904;-99.054;2022-10-16T11:42:11;22.20;99.00
61386;DHT22;47256;18.904;-99.054;2022-10-16T11:47:48;22.10;98.90
61386;DHT22;47256;18.904;-99.054;2022-10-16T11:55:54;22.00;99.20
61386;DHT22;47256;18.904;-99.054;2022-10-16T11:58:49;22.00;99.10
61386;DHT22;47256;18.904;-99.054;2022-10-16T12:01:33;21.90;99.20
61386;DHT22;47256;18.904;-99.054;2022-10-16T12:04:19;21.90;99.30
61386;DHT22;47256;18.904;-99.054;2022-10-16T12:09:24;21.90;99.40
61386;DHT22;47256;18.904;-99.054;2022-10-16T12:11:52;21.90;99.20
61386;DHT22;47256;18.904;-99.054;2022-10-16T12:14:38;21.90;99.20
61386;DHT22;47256;18.904;-99.054;2022-10-16T12:17:37;21.90;99.20
61386;DHT22;47256;18.904;-99.054;2022-10-16T12:22:55;21.90;99.30
61386;DHT22;47256;18.904;-99.054;2022-10-16T12:25:41;21.90;99.30
61386;DHT22;47256;18.904;-99.054;2022-10-16T12:30:53;21.70;99.30
61386;DHT22;47256;18.904;-99.054;2022-10-16T12:33:30;21.70;99.30
61386;DHT22;47256;18.904;-99.054;2022-10-16T12:36:02;21.60;99.50
61386;DHT22;47256;18.904;-99.054;2022-10-16T12:38:47;21.60;99.50
61386;DHT22;47256;18.904;-99.054;2022-10-16T12:41:29;21.60;99.50
61386;DHT22;47256;18.904;-99.054;2022-10-16T12:43:59;21.60;99.40
61386;DHT22;47256;18.904;-99.054;2022-10-16T12:49:23;21.60;99.30
61386;DHT22;47256;18.904;-99.054;2022-10-16T12:51:56;21.70;99.50
61386;DHT22;47256;18.904;-99.054;2022-10-16T12:54:35;21.70;99.50
61386;DHT22;47256;18.904;-99.054;2022-10-16T13:00:21;21.70;99.40
61386;DHT22;47256;18.904;-99.054;2022-10-16T13:08:35;21.70;99.60
61386;DHT22;47256;18.904;-99.054;2022-10-16T13:11:23;21.80;99.60
61386;DHT22;47256;18.904;-99.054;2022-10-16T13:23:29;21.90;99.50
61386;DHT22;47256;18.904;-99.054;2022-10-16T13:28:13;22.10;99.00
61386;DHT22;47256;18.904;-99.054;2022-10-16T13:31:00;22.10;98.70
61386;DHT22;47256;18.904;-99.054;2022-10-16T13:33:36;22.20;98.80
61386;DHT22;47256;18.904;-99.054;2022-10-16T13:36:06;22.30;99.00
61386;DHT22;47256;18.904;-99.054;2022-10-16T13:38:36;22.30;98.90
61386;DHT22;47256;18.904;-99.054;2022-10-16T13:41:17;22.40;98.90
61386;DHT22;47256;18.904;-99.054;2022-10-16T13:43:52;22.40;98.90
61386;DHT22;47256;18.904;-99.054;2022-10-16T13:46:26;22.60;99.20
61386;DHT22;47256;18.904;-99.054;2022-10-16T13:49:01;22.70;98.90
61386;DHT22;47256;18.904;-99.054;2022-10-16T13:51:29;22.90;98.80
61386;DHT22;47256;18.904;-99.054;2022-10-16T13:53:58;23.00;98.70
61386;DHT22;47256;18.904;-99.054;2022-10-16T13:56:27;23.10;98.40
61386;DHT22;47256;18.904;-99.054;2022-10-16T13:59:05;23.20;98.60
61386;DHT22;47256;18.904;-99.054;2022-10-16T14:01:44;23.30;98.40
61386;DHT22;47256;18.904;-99.054;2022-10-16T14:04:14;23.40;98.40
61386;DHT22;47256;18.904;-99.054;2022-10-16T14:06:44;23.40;98.40
61386;DHT22;47256;18.904;-99.054;2022-10-16T14:09:25;23.50;98.30
61386;DHT22;47256;18.904;-99.054;2022-10-16T14:12:03;23.60;98.80
61386;DHT22;47256;18.904;-99.054;2022-10-16T14:14:40;23.60;99.20
61386;DHT22;47256;18.904;-99.054;2022-10-16T14:17:24;23.80;99.30
61386;DHT22;47256;18.904;-99.054;2022-10-16T14:19:56;23.80;98.90
61386;DHT22;47256;18.904;-99.054;2022-10-16T14:22:37;23.90;98.70
61386;DHT22;47256;18.904;-99.054;2022-10-16T14:25:26;24.00;98.90
61386;DHT22;47256;18.904;-99.054;2022-10-16T14:30:31;24.20;98.30
61386;DHT22;47256;18.904;-99.054;2022-10-16T14:36:14;24.40;97.90
61386;DHT22;47256;18.904;-99.054;2022-10-16T14:38:49;24.60;97.90
61386;DHT22;47256;18.904;-99.054;2022-10-16T14:41:22;24.70;97.90
61386;DHT22;47256;18.904;-99.054;2022-10-16T14:43:57;24.80;97.70
61386;DHT22;47256;18.904;-99.054;2022-10-16T14:46:32;25.00;97.50
61386;DHT22;47256;18.904;-99.054;2022-10-16T14:49:22;25.10;97.10
61386;DHT22;47256;18.904;-99.054;2022-10-16T14:51:52;25.20;97.20
61386;DHT22;47256;18.904;-99.054;2022-10-16T14:54:19;25.40;97.30
61386;DHT22;47256;18.904;-99.054;2022-10-16T14:57:24;25.50;96.30
61386;DHT22;47256;18.904;-99.054;2022-10-16T14:59:54;25.60;95.10
61386;DHT22;47256;18.904;-99.054;2022-10-16T15:02:35;25.70;95.40
61386;DHT22;47256;18.904;-99.054;2022-10-16T15:05:18;25.80;95.60
61386;DHT22;47256;18.904;-99.054;2022-10-16T15:07:46;26.00;96.00
61386;DHT22;47256;18.904;-99.054;2022-10-16T15:10:16;26.10;95.70
61386;DHT22;47256;18.904;-99.054;2022-10-16T15:12:45;26.20;94.20
61386;DHT22;47256;18.904;-99.054;2022-10-16T15:17:51;26.30;95.10
61386;DHT22;47256;18.904;-99.054;2022-10-16T15:20:32;26.50;94.00
61386;DHT22;47256;18.904;-99.054;2022-10-16T15:23:15;26.60;95.30
61386;DHT22;47256;18.904;-99.054;2022-10-16T15:25:45;26.80;94.30
61386;DHT22;47256;18.904;-99.054;2022-10-16T15:28:19;26.90;95.00
61386;DHT22;47256;18.904;-99.054;2022-10-16T15:30:46;27.00;94.50
61386;DHT22;47256;18.904;-99.054;2022-10-16T15:33:18;27.10;94.30
61386;DHT22;47256;18.904;-99.054;2022-10-16T15:35:52;27.20;93.50
61386;DHT22;47256;18.904;-99.054;2022-10-16T15:38:22;27.30;92.60
61386;DHT22;47256;18.904;-99.054;2022-10-16T15:40:50;27.30;92.60
61386;DHT22;47256;18.904;-99.054;2022-10-16T15:43:17;27.50;93.90
61386;DHT22;47256;18.904;-99.054;2022-10-16T15:46:02;27.50;92.40
61386;DHT22;47256;18.904;-99.054;2022-10-16T15:48:31;27.50;91.90
61386;DHT22;47256;18.904;-99.054;2022-10-16T15:51:00;27.70;92.90
61386;DHT22;47256;18.904;-99.054;2022-10-16T15:53:27;27.80;94.00
61386;DHT22;47256;18.904;-99.054;2022-10-16T15:55:55;28.00;93.00
61386;DHT22;47256;18.904;-99.054;2022-10-16T15:58:22;28.10;91.80
61386;DHT22;47256;18.904;-99.054;2022-10-16T16:00:57;28.20;91.50
61386;DHT22;47256;18.904;-99.054;2022-10-16T16:03:26;28.20;91.00
61386;DHT22;47256;18.904;-99.054;2022-10-16T16:05:53;28.20;91.40
61386;DHT22;47256;18.904;-99.054;2022-10-16T16:08:22;28.40;92.10
61386;DHT22;47256;18.904;-99.054;2022-10-16T16:11:03;28.40;91.10
61386;DHT22;47256;18.904;-99.054;2022-10-16T16:13:32;28.40;90.90
61386;DHT22;47256;18.904;-99.054;2022-10-16T16:16:00;28.40;91.30
61386;DHT22;47256;18.904;-99.054;2022-10-16T16:18:27;28.40;90.60
61386;DHT22;47256;18.904;-99.054;2022-10-16T16:20:55;28.50;90.30
61386;DHT22;47256;18.904;-99.054;2022-10-16T16:23:25;28.50;90.70
61386;DHT22;47256;18.904;-99.054;2022-10-16T16:26:12;28.70;89.70
61386;DHT22;47256;18.904;-99.054;2022-10-16T16:28:40;29.00;90.30
61386;DHT22;47256;18.904;-99.054;2022-10-16T16:31:08;29.20;90.20
61386;DHT22;47256;18.904;-99.054;2022-10-16T16:33:37;29.30;90.10
61386;DHT22;47256;18.904;-99.054;2022-10-16T16:36:06;29.40;90.20
61386;DHT22;47256;18.904;-99.054;2022-10-16T16:38:34;29.60;86.20
61386;DHT22;47256;18.904;-99.054;2022-10-16T16:41:14;29.80;88.00
61386;DHT22;47256;18.904;-99.054;2022-10-16T16:43:42;29.60;88.60
61386;DHT22;47256;18.904;-99.054;2022-10-16T16:46:11;29.70;88.90
61386;DHT22;47256;18.904;-99.054;2022-10-16T16:48:40;29.70;87.20
61386;DHT22;47256;18.904;-99.054;2022-10-16T16:51:13;29.60;89.20
61386;DHT22;47256;18.904;-99.054;2022-10-16T16:53:47;29.80;85.90
61386;DHT22;47256;18.904;-99.054;2022-10-16T16:56:16;30.00;83.30
61386;DHT22;47256;18.904;-99.054;2022-10-16T16:58:51;30.10;85.40
61386;DHT22;47256;18.904;-99.054;2022-10-16T17:01:20;30.30;88.50
61386;DHT22;47256;18.904;-99.054;2022-10-16T17:03:50;30.30;86.60
61386;DHT22;47256;18.904;-99.054;2022-10-16T17:06:23;30.30;87.60
61386;DHT22;47256;18.904;-99.054;2022-10-16T17:08:54;30.60;86.50
61386;DHT22;47256;18.904;-99.054;2022-10-16T17:11:24;30.70;86.80
61386;DHT22;47256;18.904;-99.054;2022-10-16T17:13:54;30.80;87.80
61386;DHT22;47256;18.904;-99.054;2022-10-16T17:16:24;31.00;85.60
61386;DHT22;47256;18.904;-99.054;2022-10-16T17:18:51;31.00;86.00
61386;DHT22;47256;18.904;-99.054;2022-10-16T17:21:20;31.10;87.10
61386;DHT22;47256;18.904;-99.054;2022-10-16T17:23:51;31.20;86.60
61386;DHT22;47256;18.904;-99.054;2022-10-16T17:26:19;31.20;87.50